Time;durP1;ratioP1;P1;durP2;ratioP2;P2;SDS_P1;SDS_P2;PMS_P1;PMS_P2;Temp;Humidity;BMP_temperature;BMP_pressure;BME280_temperature;BME280_humidity;BME280_pressure;Samples;Min_cycle;Max_cycle;Signal;HPM_P1;HPM_P2
2021/01/29 00:01:57;;;;;;;138.07;43.70;;;;;;;;;;5093712;28;20085;-75
2021/01/29 00:04:22;;;;;;;118.20;41.00;;;;;;;;;;5098069;28;20313;-75
2021/01/29 00:06:48;;;;;;;122.80;41.93;;;;;;;;;;5099421;28;20023;-78
2021/01/29 00:09:13;;;;;;;129.80;40.93;;;;;;;;;;5099272;28;20072;-78
2021/01/29 00:11:41;;;;;;;120.33;40.13;;;;;;;;;;5097607;28;20355;-78
2021/01/29 00:14:13;;;;;;;125.85;41.67;;;;;;;;;;5097986;28;20044;-78
2021/01/29 00:16:38;;;;;;;127.38;42.28;;;;;;;;;;5099272;28;20020;-78
2021/01/29 00:19:04;;;;;;;118.27;41.37;;;;;;;;;;5097854;28;20054;-78
2021/01/29 00:21:29;;;;;;;121.27;39.60;;;;;;;;;;5097624;28;20035;-78
2021/01/29 00:23:55;;;;;;;119.20;38.40;;;;;;;;;;5094691;28;20027;-77
2021/01/29 00:26:20;;;;;;;118.03;38.58;;;;;;;;;;5096981;28;20104;-76
2021/01/29 00:28:45;;;;;;;124.93;40.20;;;;;;;;;;5098479;28;20020;-76
2021/01/29 00:31:10;;;;;;;122.50;40.67;;;;;;;;;;5098319;28;20335;-76
2021/01/29 00:33:36;;;;;;;102.87;37.97;;;;;;;;;;5086526;28;20028;-76
2021/01/29 00:36:01;;;;;;;108.37;36.77;;;;;;;;;;5092855;28;20096;-76
2021/01/29 00:38:26;;;;;;;111.10;38.60;;;;;;;;;;5097959;28;20305;-76
2021/01/29 00:40:51;;;;;;;108.13;38.60;;;;;;;;;;5097844;28;20442;-76
2021/01/29 00:43:17;;;;;;;112.83;38.53;;;;;;;;;;5096607;28;20066;-76
2021/01/29 00:45:43;;;;;;;108.87;36.60;;;;;;;;;;5098548;28;20287;-76
2021/01/29 00:48:09;;;;;;;122.65;37.60;;;;;;;;;;5098215;28;20015;-76
2021/01/29 00:50:35;;;;;;;114.47;36.57;;;;;;;;;;5098477;28;20486;-76
2021/01/29 00:53:00;;;;;;;123.22;35.42;;;;;;;;;;5097711;28;20024;-76
2021/01/29 00:55:26;;;;;;;113.33;35.77;;;;;;;;;;5096067;28;20102;-76
2021/01/29 00:57:51;;;;;;;101.03;34.30;;;;;;;;;;5096559;28;20032;-76
2021/01/29 01:00:17;;;;;;;95.00;33.03;;;;;;;;;;5097558;28;20382;-76
2021/01/29 01:02:43;;;;;;;101.55;33.60;;;;;;;;;;5097970;28;20113;-76
2021/01/29 01:05:09;;;;;;;96.67;32.20;;;;;;;;;;5096183;28;20059;-76
2021/01/29 01:07:34;;;;;;;85.97;31.27;;;;;;;;;;5096416;28;20065;-76
2021/01/29 01:10:00;;;;;;;89.43;30.20;;;;;;;;;;5097464;28;20016;-76
2021/01/29 01:12:25;;;;;;;91.53;29.93;;;;;;;;;;5097108;28;20442;-76
2021/01/29 01:14:50;;;;;;;84.47;28.27;;;;;;;;;;5097451;28;20020;-76
2021/01/29 01:17:15;;;;;;;87.72;30.05;;;;;;;;;;5095988;28;20031;-76
2021/01/29 01:19:41;;;;;;;74.77;28.70;;;;;;;;;;5096988;28;20004;-76
2021/01/29 01:22:07;;;;;;;87.70;30.60;;;;;;;;;;5097485;28;20020;-76
2021/01/29 01:24:39;;;;;;;84.95;30.70;;;;;;;;;;5096900;28;20004;-76
2021/01/29 01:27:05;;;;;;;84.07;31.08;;;;;;;;;;5085689;28;20035;-76
2021/01/29 01:29:30;;;;;;;86.85;31.80;;;;;;;;;;5094003;28;20024;-76
2021/01/29 01:31:55;;;;;;;78.13;28.97;;;;;;;;;;5097733;28;20012;-76
2021/01/29 01:34:20;;;;;;;76.53;30.47;;;;;;;;;;5096356;28;20054;-76
2021/01/29 01:36:45;;;;;;;84.20;28.90;;;;;;;;;;5095350;28;20440;-76
2021/01/29 01:39:11;;;;;;;81.13;29.67;;;;;;;;;;5096838;28;20051;-76
2021/01/29 01:41:36;;;;;;;79.03;30.50;;;;;;;;;;5096564;28;20020;-76
2021/01/29 01:44:17;;;;;;;79.73;31.57;;;;;;;;;;5096963;28;20141;-77
2021/01/29 01:46:43;;;;;;;77.97;28.92;;;;;;;;;;5097151;28;20089;-76
2021/01/29 01:49:12;;;;;;;83.00;28.90;;;;;;;;;;5095660;28;20051;-76
2021/01/29 01:51:39;;;;;;;83.32;29.63;;;;;;;;;;5096465;28;20024;-76
2021/01/29 01:54:23;;;;;;;85.20;27.92;;;;;;;;;;5096329;28;20023;-76
2021/01/29 01:56:50;;;;;;;74.72;30.85;;;;;;;;;;5096213;28;20023;-76
2021/01/29 01:59:17;;;;;;;91.22;30.10;;;;;;;;;;5094231;28;20039;-76
2021/01/29 02:01:43;;;;;;;82.38;30.00;;;;;;;;;;5096015;28;20043;-76
2021/01/29 02:04:09;;;;;;;92.25;31.13;;;;;;;;;;5096858;28;20020;-76
2021/01/29 02:06:40;;;;;;;87.30;32.07;;;;;;;;;;5096709;28;20089;-76
2021/01/29 02:09:07;;;;;;;84.53;30.45;;;;;;;;;;5094349;28;20016;-76
2021/01/29 02:11:32;;;;;;;89.10;29.95;;;;;;;;;;5095115;28;20372;-77
2021/01/29 02:13:57;;;;;;;83.67;29.90;;;;;;;;;;5096260;28;20032;-77
2021/01/29 02:16:29;;;;;;;79.97;29.13;;;;;;;;;;5096792;28;20321;-77
2021/01/29 02:19:13;;;;;;;77.00;30.58;;;;;;;;;;5096434;28;20105;-77
2021/01/29 02:21:41;;;;;;;76.43;31.77;;;;;;;;;;5096554;28;20062;-77
2021/01/29 02:24:25;;;;;;;75.05;31.35;;;;;;;;;;5083120;28;20394;-77
2021/01/29 02:26:53;;;;;;;77.18;29.63;;;;;;;;;;5096240;28;20023;-77
2021/01/29 02:29:50;;;;;;;78.72;31.58;;;;;;;;;;5096625;28;20134;-77
2021/01/29 02:32:35;;;;;;;102.50;32.88;;;;;;;;;;5074393;28;20082;-77
2021/01/29 02:35:19;;;;;;;70.88;32.15;;;;;;;;;;5072921;28;20052;-78
2021/01/29 02:37:53;;;;;;;83.18;31.60;;;;;;;;;;5074235;28;20020;-77
2021/01/29 02:40:21;;;;;;;73.03;29.33;;;;;;;;;;5074313;28;20027;-77
2021/01/29 02:43:05;;;;;;;75.25;29.67;;;;;;;;;;5074141;28;20028;-77
2021/01/29 02:45:38;;;;;;;70.22;28.00;;;;;;;;;;5072845;28;20560;-77
2021/01/29 02:48:09;;;;;;;68.07;27.25;;;;;;;;;;5072578;28;20048;-77
2021/01/29 02:50:37;;;;;;;58.97;25.40;;;;;;;;;;5074239;28;20032;-77
2021/01/29 02:53:18;;;;;;;64.18;24.98;;;;;;;;;;5074330;28;20036;-77
2021/01/29 02:55:47;;;;;;;49.60;24.27;;;;;;;;;;5057021;28;20024;-77
2021/01/29 02:58:17;;;;;;;47.47;21.67;;;;;;;;;;5074310;28;20483;-77
2021/01/29 03:00:45;;;;;;;43.15;21.58;;;;;;;;;;5073656;28;20043;-77
2021/01/29 03:03:15;;;;;;;38.33;19.00;;;;;;;;;;5074231;28;20033;-77
2021/01/29 03:05:43;;;;;;;31.20;17.77;;;;;;;;;;5072445;28;20029;-77
2021/01/29 03:08:08;;;;;;;30.55;18.10;;;;;;;;;;5084917;28;20382;-76
2021/01/29 03:10:52;;;;;;;30.60;16.80;;;;;;;;;;5096106;28;20052;-77
2021/01/29 03:13:22;;;;;;;27.30;17.33;;;;;;;;;;5096148;28;20035;-77
2021/01/29 03:15:54;;;;;;;27.08;16.92;;;;;;;;;;5093130;28;20033;-77
2021/01/29 03:18:20;;;;;;;30.63;18.08;;;;;;;;;;5092791;28;20020;-77
2021/01/29 03:20:48;;;;;;;31.67;18.23;;;;;;;;;;5095906;28;20061;-77
2021/01/29 03:23:26;;;;;;;29.73;17.10;;;;;;;;;;5085747;28;20089;-77
2021/01/29 03:25:54;;;;;;;28.20;18.17;;;;;;;;;;5094642;28;20020;-77
2021/01/29 03:28:22;;;;;;;28.65;16.90;;;;;;;;;;5094763;28;20502;-77
2021/01/29 03:30:49;;;;;;;29.00;17.10;;;;;;;;;;5096006;28;20103;-77
2021/01/29 03:33:16;;;;;;;29.33;17.42;;;;;;;;;;5092515;28;20024;-78
2021/01/29 03:35:46;;;;;;;29.45;16.98;;;;;;;;;;5083727;28;20020;-77
2021/01/29 03:38:23;;;;;;;26.50;16.85;;;;;;;;;;5098085;28;20348;-77
2021/01/29 03:41:11;;;;;;;27.50;14.68;;;;;;;;;;5099915;28;20038;-77
2021/01/29 03:43:42;;;;;;;24.70;15.13;;;;;;;;;;5076443;28;20422;-77
2021/01/29 03:46:11;;;;;;;23.25;14.40;;;;;;;;;;5077681;28;20338;-77
2021/01/29 03:48:39;;;;;;;21.08;13.32;;;;;;;;;;5077382;28;20052;-77
2021/01/29 03:51:06;;;;;;;19.85;12.38;;;;;;;;;;5077499;28;20056;-76
2021/01/29 03:53:36;;;;;;;19.83;12.50;;;;;;;;;;5077390;28;20103;-77
2021/01/29 03:56:08;;;;;;;23.58;13.15;;;;;;;;;;5075934;28;20024;-77
2021/01/29 03:58:39;;;;;;;23.20;12.18;;;;;;;;;;5060413;28;20127;-76
2021/01/29 04:01:30;;;;;;;20.55;11.48;;;;;;;;;;5060225;28;20120;-77
2021/01/29 04:04:13;;;;;;;18.75;10.18;;;;;;;;;;5077223;28;20405;-77
2021/01/29 04:06:43;;;;;;;19.23;10.75;;;;;;;;;;5075580;28;20053;-77
2021/01/29 04:09:27;;;;;;;15.07;10.18;;;;;;;;;;5077053;28;20457;-77
2021/01/29 04:11:54;;;;;;;15.93;10.38;;;;;;;;;;5077277;28;20307;-77
2021/01/29 04:14:39;;;;;;;17.33;10.15;;;;;;;;;;5076938;28;20052;-76
2021/01/29 04:17:27;;;;;;;14.88;10.20;;;;;;;;;;5075428;28;20051;-76
2021/01/29 04:20:00;;;;;;;15.95;10.30;;;;;;;;;;5077381;28;20459;-77
2021/01/29 04:22:28;;;;;;;18.13;10.52;;;;;;;;;;5093393;28;20016;-76
2021/01/29 04:24:58;;;;;;;19.60;10.18;;;;;;;;;;5098899;28;20065;-76
2021/01/29 04:27:28;;;;;;;14.32;9.35;;;;;;;;;;5095768;28;20035;-76
2021/01/29 04:29:59;;;;;;;16.77;10.00;;;;;;;;;;5097616;28;20095;-76
2021/01/29 04:32:26;;;;;;;15.95;9.43;;;;;;;;;;5098856;28;20024;-76
2021/01/29 04:34:53;;;;;;;18.23;10.55;;;;;;;;;;5098614;28;20020;-76
2021/01/29 04:37:23;;;;;;;18.05;9.75;;;;;;;;;;5096895;28;20024;-76
2021/01/29 04:39:53;;;;;;;12.73;9.43;;;;;;;;;;5097780;28;20503;-76
2021/01/29 04:42:37;;;;;;;19.33;9.85;;;;;;;;;;5097931;28;20028;-76
2021/01/29 04:45:02;;;;;;;14.82;9.68;;;;;;;;;;5097685;28;20347;-76
2021/01/29 04:47:37;;;;;;;18.07;10.70;;;;;;;;;;5097842;28;20027;-76
2021/01/29 04:50:06;;;;;;;18.58;11.35;;;;;;;;;;5097836;28;20023;-76
2021/01/29 04:52:48;;;;;;;16.70;10.88;;;;;;;;;;5098656;28;20073;-76
2021/01/29 04:55:19;;;;;;;21.88;11.48;;;;;;;;;;5098376;28;20020;-76
2021/01/29 04:58:03;;;;;;;15.13;9.85;;;;;;;;;;5098445;28;20030;-76
2021/01/29 05:00:48;;;;;;;12.15;8.10;;;;;;;;;;5078510;28;20116;-77
2021/01/29 05:03:23;;;;;;;11.45;7.13;;;;;;;;;;5080537;28;20356;-77
2021/01/29 05:06:23;;;;;;;12.77;8.82;;;;;;;;;;5081484;28;20013;-77
2021/01/29 05:09:00;;;;;;;12.70;8.93;;;;;;;;;;5052467;28;20028;-77
2021/01/29 05:11:25;;;;;;;;;;;;;;;;;;5047308;28;20041;-77
2021/01/29 05:13:56;;;;;;;9.32;8.27;;;;;;;;;;5055873;28;19927;-77
2021/01/29 05:16:21;;;;;;;9.90;8.02;;;;;;;;;;5055980;28;20040;-76
2021/01/29 05:19:05;;;;;;;8.10;7.30;;;;;;;;;;5055773;28;20025;-76
2021/01/29 05:21:30;;;;;;;7.03;5.90;;;;;;;;;;5054115;28;20438;-76
2021/01/29 05:24:01;;;;;;;4.77;4.20;;;;;;;;;;5055585;28;20033;-76
2021/01/29 05:26:49;;;;;;;3.78;3.28;;;;;;;;;;5037999;28;20035;-76
2021/01/29 05:29:32;;;;;;;3.60;3.30;;;;;;;;;;5055582;28;20056;-76
2021/01/29 05:32:16;;;;;;;3.97;3.28;;;;;;;;;;5044793;28;20029;-76
2021/01/29 05:35:01;;;;;;;5.50;3.60;;;;;;;;;;5055500;28;20028;-76
2021/01/29 05:38:01;;;;;;;4.28;3.45;;;;;;;;;;5055558;28;20124;-76
2021/01/29 05:40:38;;;;;;;4.68;3.97;;;;;;;;;;4996114;28;20045;-76
2021/01/29 05:43:22;;;;;;;6.53;4.00;;;;;;;;;;5016690;28;20427;-76
2021/01/29 05:46:02;;;;;;;4.70;3.03;;;;;;;;;;5035530;28;20034;-76
2021/01/29 05:48:27;;;;;;;4.35;2.80;;;;;;;;;;5035229;28;20025;-76
2021/01/29 05:51:04;;;;;;;5.00;2.93;;;;;;;;;;5035438;28;20036;-76
2021/01/29 05:53:47;;;;;;;4.03;3.17;;;;;;;;;;5034549;28;20036;-76
2021/01/29 05:56:17;;;;;;;4.57;2.78;;;;;;;;;;5035230;28;20120;-76
2021/01/29 05:58:54;;;;;;;6.50;3.28;;;;;;;;;;5035070;28;20079;-76
2021/01/29 06:01:32;;;;;;;3.70;2.70;;;;;;;;;;5034053;28;20041;-76
2021/01/29 06:04:06;;;;;;;6.43;3.40;;;;;;;;;;5033462;28;20091;-76
2021/01/29 06:06:50;;;;;;;6.50;3.60;;;;;;;;;;5035146;28;20022;-76
2021/01/29 06:09:15;;;;;;;6.90;4.65;;;;;;;;;;5022245;28;20025;-76
2021/01/29 06:11:46;;;;;;;7.70;4.30;;;;;;;;;;5018744;28;20035;-76
2021/01/29 06:14:30;;;;;;;8.77;4.85;;;;;;;;;;5045742;28;20036;-76
2021/01/29 06:17:09;;;;;;;7.90;4.72;;;;;;;;;;5096803;28;20016;-76
2021/01/29 06:19:52;;;;;;;10.27;4.70;;;;;;;;;;5097228;28;20413;-76
2021/01/29 06:22:36;;;;;;;14.05;4.53;;;;;;;;;;5096586;28;20024;-76
2021/01/29 06:25:12;;;;;;;9.57;5.00;;;;;;;;;;5094890;28;20290;-76
2021/01/29 06:27:41;;;;;;;12.40;4.78;;;;;;;;;;5096623;28;20020;-76
2021/01/29 06:30:29;;;;;;;10.70;4.90;;;;;;;;;;5096757;28;20019;-76
2021/01/29 06:32:57;;;;;;;13.27;5.00;;;;;;;;;;5096485;28;20024;-76
2021/01/29 06:35:23;;;;;;;14.55;5.25;;;;;;;;;;5094941;28;20028;-76
2021/01/29 06:38:06;;;;;;;12.37;4.07;;;;;;;;;;5096647;28;20027;-76
2021/01/29 06:40:43;;;;;;;9.52;3.80;;;;;;;;;;5084829;28;20024;-76
2021/01/29 06:43:27;;;;;;;18.50;3.93;;;;;;;;;;5096450;28;20016;-76
2021/01/29 06:46:10;;;;;;;19.25;3.80;;;;;;;;;;5094804;28;20020;-76
2021/01/29 06:48:54;;;;;;;18.88;5.22;;;;;;;;;;5095958;28;20024;-76
2021/01/29 06:51:22;;;;;;;14.43;3.60;;;;;;;;;;5096371;28;20016;-74
2021/01/29 06:54:02;;;;;;;11.45;3.90;;;;;;;;;;5096181;28;20397;-73
2021/01/29 06:56:30;;;;;;;11.05;3.95;;;;;;;;;;5094612;28;20115;-73
2021/01/29 06:58:56;;;;;;;9.00;3.78;;;;;;;;;;5080927;28;20032;-73
2021/01/29 07:01:30;;;;;;;10.90;3.37;;;;;;;;;;5084240;28;20032;-74
2021/01/29 07:04:04;;;;;;;6.63;3.17;;;;;;;;;;5077031;28;20086;-74
2021/01/29 07:06:29;;;;;;;13.13;3.75;;;;;;;;;;5080858;28;20025;-75
2021/01/29 07:08:54;;;;;;;10.40;3.50;;;;;;;;;;5090863;28;20091;-75
2021/01/29 07:11:38;;;;;;;14.07;3.87;;;;;;;;;;5091672;28;20421;-74
2021/01/29 07:14:22;;;;;;;18.67;3.47;;;;;;;;;;5092518;28;20062;-74
2021/01/29 07:17:02;;;;;;;19.20;5.63;;;;;;;;;;5089935;28;20032;-74
2021/01/29 07:19:30;;;;;;;22.73;4.18;;;;;;;;;;5083887;28;20031;-73
2021/01/29 07:21:55;;;;;;;30.88;6.38;;;;;;;;;;5083359;28;20023;-73
2021/01/29 07:24:32;;;;;;;29.80;5.03;;;;;;;;;;5088184;28;20016;-73
2021/01/29 07:27:07;;;;;;;26.33;5.15;;;;;;;;;;5096079;28;20409;-74
2021/01/29 07:29:32;;;;;;;32.45;7.13;;;;;;;;;;5094138;28;20015;-74
2021/01/29 07:32:06;;;;;;;26.63;4.87;;;;;;;;;;5095757;28;20392;-74
2021/01/29 07:34:31;;;;;;;40.45;6.53;;;;;;;;;;5090917;28;20417;-74
2021/01/29 07:37:23;;;;;;;33.73;6.27;;;;;;;;;;5091669;28;20095;-74
2021/01/29 07:40:07;;;;;;;37.42;6.22;;;;;;;;;;5089716;28;20029;-74
2021/01/29 07:42:51;;;;;;;30.67;5.93;;;;;;;;;;5090193;28;20103;-77
2021/01/29 07:45:25;;;;;;;26.33;6.07;;;;;;;;;;5089893;28;20038;-76
2021/01/29 07:48:09;;;;;;;27.85;5.95;;;;;;;;;;5084027;28;20111;-75
2021/01/29 07:50:45;;;;;;;39.45;7.15;;;;;;;;;;5083355;28;20056;-75
2021/01/29 07:53:29;;;;;;;29.15;5.75;;;;;;;;;;5082766;28;20062;-74
2021/01/29 07:56:06;;;;;;;37.67;6.47;;;;;;;;;;5086631;28;20103;-75
2021/01/29 07:58:50;;;;;;;44.70;7.63;;;;;;;;;;5085212;28;20027;-74
2021/01/29 08:01:25;;;;;;;33.60;6.90;;;;;;;;;;5085343;28;20049;-75
2021/01/29 08:04:03;;;;;;;27.33;6.18;;;;;;;;;;5087027;28;20012;-75
2021/01/29 08:06:31;;;;;;;40.05;6.30;;;;;;;;;;5083668;28;20016;-74
2021/01/29 08:09:22;;;;;;;30.63;5.95;;;;;;;;;;5086857;28;20016;-75
2021/01/29 08:11:49;;;;;;;39.90;6.97;;;;;;;;;;5077087;28;20036;-74
2021/01/29 08:14:33;;;;;;;33.25;6.15;;;;;;;;;;5081280;28;20031;-74
2021/01/29 08:17:08;;;;;;;42.67;6.95;;;;;;;;;;5088959;28;20035;-73
2021/01/29 08:19:45;;;;;;;33.67;6.30;;;;;;;;;;5108486;28;20028;-74
2021/01/29 08:22:13;;;;;;;29.52;6.70;;;;;;;;;;5102310;28;20381;-74
2021/01/29 08:24:58;;;;;;;42.67;7.05;;;;;;;;;;5109592;28;20465;-74
2021/01/29 08:27:41;;;;;;;29.20;5.68;;;;;;;;;;5119586;28;20020;-73
2021/01/29 08:30:25;;;;;;;39.90;6.80;;;;;;;;;;5105902;28;20347;-73
2021/01/29 08:33:00;;;;;;;30.48;6.40;;;;;;;;;;5117497;28;20102;-74
2021/01/29 08:35:28;;;;;;;31.00;6.15;;;;;;;;;;5119372;28;20118;-74
2021/01/29 08:38:02;;;;;;;36.28;7.03;;;;;;;;;;5119114;28;20015;-74
2021/01/29 08:40:37;;;;;;;31.48;6.28;;;;;;;;;;5119126;28;20278;-74
2021/01/29 08:43:13;;;;;;;28.35;6.47;;;;;;;;;;5117305;28;20103;-74
2021/01/29 08:45:57;;;;;;;29.95;6.35;;;;;;;;;;5119057;28;20008;-74
2021/01/29 08:48:41;;;;;;;30.23;6.50;;;;;;;;;;5100779;28;20015;-74
2021/01/29 08:51:09;;;;;;;32.10;6.70;;;;;;;;;;5119069;28;20020;-74
2021/01/29 08:53:34;;;;;;;36.05;6.68;;;;;;;;;;5117147;28;20015;-74
2021/01/29 08:56:02;;;;;;;31.20;6.53;;;;;;;;;;5118386;28;20023;-74
2021/01/29 08:58:30;;;;;;;31.23;6.40;;;;;;;;;;5118761;28;20024;-74
2021/01/29 09:01:01;;;;;;;32.58;5.60;;;;;;;;;;5118430;28;20046;-74
2021/01/29 09:03:29;;;;;;;26.75;6.07;;;;;;;;;;5116688;28;20359;-74
2021/01/29 09:06:24;;;;;;;35.53;7.78;;;;;;;;;;5087867;28;20031;-74
2021/01/29 09:08:59;;;;;;;32.53;6.03;;;;;;;;;;5112317;27;20035;-75
2021/01/29 09:11:58;;;;;;;33.58;6.78;;;;;;;;;;5139212;27;20410;-75
2021/01/29 09:14:38;;;;;;;35.58;6.57;;;;;;;;;;5054549;28;20040;-75
2021/01/29 09:17:09;;;;;;;44.55;7.50;;;;;;;;;;5055628;28;20374;-75
2021/01/29 09:19:36;;;;;;;39.00;7.80;;;;;;;;;;5055942;28;20111;-75
2021/01/29 09:22:20;;;;;;;34.05;6.70;;;;;;;;;;5055866;28;20025;-74
2021/01/29 09:25:05;;;;;;;35.25;6.47;;;;;;;;;;5038094;28;20025;-74
2021/01/29 09:27:41;;;;;;;28.45;6.38;;;;;;;;;;5049132;28;20025;-74
2021/01/29 09:30:12;;;;;;;24.17;5.00;;;;;;;;;;5055797;28;20061;-74
2021/01/29 09:32:54;;;;;;;34.58;6.55;;;;;;;;;;5038962;28;20017;-74
2021/01/29 09:35:40;;;;;;;33.03;7.03;;;;;;;;;;5054885;28;20036;-74
2021/01/29 09:38:07;;;;;;;33.05;7.38;;;;;;;;;;5051807;28;20033;-74
2021/01/29 09:40:35;;;;;;;39.58;7.13;;;;;;;;;;5055592;28;20831;-74
2021/01/29 09:43:19;;;;;;;27.80;5.90;;;;;;;;;;5055329;28;20406;-74
2021/01/29 09:45:51;;;;;;;34.50;6.25;;;;;;;;;;5055471;28;20100;-73
2021/01/29 09:48:20;;;;;;;31.52;6.00;;;;;;;;;;5053698;28;20432;-73
2021/01/29 09:50:46;;;;;;;34.50;7.10;;;;;;;;;;5116068;27;20039;-73
2021/01/29 09:53:19;;;;;;;34.83;7.47;;;;;;;;;;5138215;27;20064;-73
2021/01/29 09:55:50;;;;;;;31.83;6.53;;;;;;;;;;5138350;27;20031;-73
2021/01/29 09:58:37;;;;;;;33.45;5.57;;;;;;;;;;5136506;27;20378;-73
2021/01/29 10:01:09;;;;;;;25.40;5.82;;;;;;;;;;5127322;27;20027;-73
2021/01/29 10:03:57;;;;;;;31.65;5.90;;;;;;;;;;5116061;27;20023;-73
2021/01/29 10:06:28;;;;;;;26.50;6.35;;;;;;;;;;5074982;28;20141;-73
2021/01/29 10:08:58;;;;;;;29.00;6.05;;;;;;;;;;5073195;28;20068;-73
2021/01/29 10:11:26;;;;;;;32.47;6.45;;;;;;;;;;5074940;28;20081;-73
2021/01/29 10:13:51;;;;;;;38.95;6.35;;;;;;;;;;5074811;28;20032;-73
2021/01/29 10:16:25;;;;;;;30.77;5.87;;;;;;;;;;5074930;28;20301;-72
2021/01/29 10:19:13;;;;;;;28.30;5.75;;;;;;;;;;5073042;28;20024;-72
2021/01/29 10:21:48;;;;;;;29.80;5.72;;;;;;;;;;5057926;28;20415;-72
2021/01/29 10:24:18;;;;;;;26.73;5.57;;;;;;;;;;5074329;28;20104;-72
2021/01/29 10:26:53;;;;;;;28.45;5.30;;;;;;;;;;5074813;28;20046;-73
2021/01/29 10:29:20;;;;;;;28.63;6.50;;;;;;;;;;5068989;28;20021;-72
2021/01/29 10:31:45;;;;;;;;;;;;;;;;;;5058270;28;20029;-72
2021/01/29 10:34:15;;;;;;;28.97;6.20;;;;;;;;;;5074642;28;19904;-72
2021/01/29 10:36:41;;;;;;;28.02;6.32;;;;;;;;;;5074384;28;20147;-72
2021/01/29 10:39:12;;;;;;;26.70;6.30;;;;;;;;;;5074445;28;20025;-70
2021/01/29 10:41:56;;;;;;;26.30;5.28;;;;;;;;;;5072737;28;20428;-72
2021/01/29 10:44:26;;;;;;;25.38;5.85;;;;;;;;;;5125678;27;20061;-72
2021/01/29 10:46:54;;;;;;;29.55;6.97;;;;;;;;;;5137023;27;20362;-72
2021/01/29 10:49:25;;;;;;;28.67;5.65;;;;;;;;;;5137289;27;20415;-73
2021/01/29 10:51:53;;;;;;;24.08;5.00;;;;;;;;;;5135477;27;20023;-72
2021/01/29 10:54:18;;;;;;;33.72;6.78;;;;;;;;;;5137350;27;20475;-72
2021/01/29 10:57:00;;;;;;;28.73;6.03;;;;;;;;;;5118489;27;20031;-72
2021/01/29 10:59:25;;;;;;;27.02;5.13;;;;;;;;;;5137149;27;20405;-72
2021/01/29 11:02:00;;;;;;;31.57;6.07;;;;;;;;;;5135130;27;20165;-72
2021/01/29 11:04:27;;;;;;;32.03;5.90;;;;;;;;;;5137145;27;20019;-72
2021/01/29 11:06:56;;;;;;;28.83;6.35;;;;;;;;;;5136963;27;20022;-72
2021/01/29 11:09:32;;;;;;;31.02;5.53;;;;;;;;;;5137157;27;20027;-72
2021/01/29 11:12:04;;;;;;;31.27;5.60;;;;;;;;;;5135192;28;20019;-72
2021/01/29 11:14:35;;;;;;;24.27;4.60;;;;;;;;;;5137117;28;20015;-72
2021/01/29 11:17:15;;;;;;;32.95;6.30;;;;;;;;;;5136876;28;20308;-72
2021/01/29 11:19:43;;;;;;;29.65;5.95;;;;;;;;;;5137019;28;20125;-72
2021/01/29 11:22:08;;;;;;;23.20;5.45;;;;;;;;;;5135257;28;20019;-72
2021/01/29 11:24:46;;;;;;;28.67;5.30;;;;;;;;;;5136822;28;20023;-72
2021/01/29 11:27:20;;;;;;;25.40;5.00;;;;;;;;;;5137023;28;20012;-72
2021/01/29 11:29:58;;;;;;;29.63;5.65;;;;;;;;;;5136739;28;20098;-72
2021/01/29 11:32:29;;;;;;;28.10;6.00;;;;;;;;;;5136873;28;20063;-71
2021/01/29 11:35:12;;;;;;;29.52;6.40;;;;;;;;;;5135273;28;20442;-71
2021/01/29 11:37:58;;;;;;;22.25;4.50;;;;;;;;;;5118561;28;20049;-71
2021/01/29 11:40:29;;;;;;;27.02;5.55;;;;;;;;;;5073678;28;20307;-71
2021/01/29 11:43:05;;;;;;;25.27;4.85;;;;;;;;;;5073845;28;20485;-71
2021/01/29 11:45:32;;;;;;;20.10;4.80;;;;;;;;;;5062635;28;20033;-71
2021/01/29 11:48:10;;;;;;;22.17;3.83;;;;;;;;;;5073732;28;20028;-72
2021/01/29 11:50:48;;;;;;;23.83;4.65;;;;;;;;;;5073702;28;20032;-72
2021/01/29 11:53:18;;;;;;;27.02;4.50;;;;;;;;;;5077981;28;20329;-72
2021/01/29 11:55:45;;;;;;;24.55;5.43;;;;;;;;;;5066071;28;20025;-71
2021/01/29 11:58:16;;;;;;;23.30;4.28;;;;;;;;;;5063921;28;20032;-73
2021/01/29 12:00:46;;;;;;;31.42;5.25;;;;;;;;;;5068607;28;20024;-72
2021/01/29 12:03:20;;;;;;;27.15;5.55;;;;;;;;;;5077133;28;20320;-72
2021/01/29 12:06:02;;;;;;;27.20;6.65;;;;;;;;;;5067315;28;20030;-73
2021/01/29 12:08:31;;;;;;;28.95;5.38;;;;;;;;;;5067426;28;20094;-72
2021/01/29 12:11:05;;;;;;;28.48;6.25;;;;;;;;;;5065337;28;20035;-72
2021/01/29 12:13:49;;;;;;;32.20;5.88;;;;;;;;;;5066905;28;20436;-72
2021/01/29 12:16:35;;;;;;;32.88;7.00;;;;;;;;;;5071472;28;20036;-72
2021/01/29 12:19:01;;;;;;;34.58;6.07;;;;;;;;;;5116716;28;20024;-72
2021/01/29 12:21:30;;;;;;;34.25;5.90;;;;;;;;;;5117896;28;20023;-72
2021/01/29 12:24:11;;;;;;;30.80;5.20;;;;;;;;;;5113200;28;20027;-72
2021/01/29 12:26:42;;;;;;;32.35;5.45;;;;;;;;;;5110882;27;20020;-72
2021/01/29 12:29:26;;;;;;;25.45;4.82;;;;;;;;;;5117072;27;20413;-72
2021/01/29 12:31:57;;;;;;;25.15;5.22;;;;;;;;;;5111158;28;20102;-72
2021/01/29 12:34:28;;;;;;;39.03;6.97;;;;;;;;;;5115688;28;20047;-72
2021/01/29 12:36:58;;;;;;;36.17;6.38;;;;;;;;;;5104122;28;20070;-72
2021/01/29 12:39:33;;;;;;;33.90;5.70;;;;;;;;;;5110872;28;20027;-72
2021/01/29 12:42:30;;;;;;;37.75;7.18;;;;;;;;;;5112501;28;20024;-71
2021/01/29 12:44:58;;;;;;;35.45;6.38;;;;;;;;;;5055674;28;20033;-73
2021/01/29 12:47:29;;;;;;;39.67;6.13;;;;;;;;;;5049150;28;20512;-71
2021/01/29 12:50:20;;;;;;;30.33;6.07;;;;;;;;;;5047690;28;20423;-73
2021/01/29 12:52:51;;;;;;;31.40;5.60;;;;;;;;;;5047855;28;20326;-70
2021/01/29 12:55:19;;;;;;;25.25;4.90;;;;;;;;;;5056195;28;20036;-72
2021/01/29 12:57:54;;;;;;;24.23;4.68;;;;;;;;;;5056443;28;20615;-71
2021/01/29 13:00:27;;;;;;;22.05;4.05;;;;;;;;;;5056049;28;20401;-71
2021/01/29 13:03:04;;;;;;;28.05;4.88;;;;;;;;;;5054736;28;20120;-72
2021/01/29 13:05:55;;;;;;;23.38;4.45;;;;;;;;;;5055967;28;20017;-72
2021/01/29 13:08:22;;;;;;;28.02;5.45;;;;;;;;;;5054102;28;20029;-71
2021/01/29 13:10:48;;;;;;;28.90;5.03;;;;;;;;;;5055503;28;20025;-72
2021/01/29 13:13:22;;;;;;;30.17;5.47;;;;;;;;;;5054533;28;20103;-71
2021/01/29 13:15:55;;;;;;;31.67;5.88;;;;;;;;;;5055726;28;20031;-72
2021/01/29 13:18:20;;;;;;;23.90;5.40;;;;;;;;;;5056025;28;20430;-72
2021/01/29 13:20:52;;;;;;;26.10;5.03;;;;;;;;;;5085341;28;20038;-72
2021/01/29 13:23:17;;;;;;;28.38;5.40;;;;;;;;;;5116627;28;20024;-72
2021/01/29 13:25:57;;;;;;;22.00;4.60;;;;;;;;;;5118607;28;20042;-72
2021/01/29 13:28:23;;;;;;;23.63;5.35;;;;;;;;;;5104556;28;20016;-72
2021/01/29 13:30:48;;;;;;;28.30;5.53;;;;;;;;;;5118254;28;20023;-72
2021/01/29 13:33:16;;;;;;;25.83;5.83;;;;;;;;;;5118179;28;20019;-72
2021/01/29 13:35:41;;;;;;;28.27;5.63;;;;;;;;;;5116499;28;20043;-72
2021/01/29 13:38:27;;;;;;;30.63;6.07;;;;;;;;;;5118302;28;20397;-72
2021/01/29 13:40:53;;;;;;;24.25;5.07;;;;;;;;;;5118069;28;20019;-72
2021/01/29 13:43:32;;;;;;;26.85;6.07;;;;;;;;;;5117905;28;20012;-72
2021/01/29 13:46:03;;;;;;;24.48;5.55;;;;;;;;;;5115146;28;20118;-71
2021/01/29 13:48:29;;;;;;;33.97;8.15;;;;;;;;;;5117779;28;20019;-72
2021/01/29 13:50:56;;;;;;;27.83;5.13;;;;;;;;;;5117917;28;20324;-72
2021/01/29 13:53:27;;;;;;;33.80;6.70;;;;;;;;;;5116591;28;20022;-72
2021/01/29 13:55:55;;;;;;;25.98;5.50;;;;;;;;;;5107867;28;20024;-72
2021/01/29 13:58:27;;;;;;;29.67;5.63;;;;;;;;;;5112586;28;20026;-72
2021/01/29 14:00:57;;;;;;;29.75;5.50;;;;;;;;;;5117712;28;20020;-72
2021/01/29 14:03:48;;;;;;;31.25;5.80;;;;;;;;;;5117553;28;20031;-72
2021/01/29 14:06:14;;;;;;;30.77;6.57;;;;;;;;;;5112759;28;20036;-72
2021/01/29 14:08:40;;;;;;;26.88;6.40;;;;;;;;;;5117491;28;20065;-72
2021/01/29 14:11:05;;;;;;;42.25;7.85;;;;;;;;;;5117494;28;20125;-72
2021/01/29 14:13:39;;;;;;;35.47;6.63;;;;;;;;;;5116380;28;20316;-72
2021/01/29 14:16:17;;;;;;;37.67;6.60;;;;;;;;;;5103965;28;20016;-71
2021/01/29 14:18:50;;;;;;;36.53;6.18;;;;;;;;;;5110365;28;20052;-72
2021/01/29 14:21:21;;;;;;;32.70;6.47;;;;;;;;;;5117066;28;20030;-72
2021/01/29 14:23:53;;;;;;;31.75;5.75;;;;;;;;;;5116666;28;20050;-71
2021/01/29 14:26:39;;;;;;;29.40;5.57;;;;;;;;;;5117102;28;20023;-72
2021/01/29 14:29:10;;;;;;;29.05;5.28;;;;;;;;;;5115135;28;20016;-72
2021/01/29 14:31:44;;;;;;;30.67;6.15;;;;;;;;;;5116962;28;20031;-72
2021/01/29 14:34:12;;;;;;;28.52;5.68;;;;;;;;;;5117063;28;20016;-72
2021/01/29 14:36:37;;;;;;;22.48;5.20;;;;;;;;;;5116873;28;20080;-72
2021/01/29 14:39:16;;;;;;;29.47;6.03;;;;;;;;;;5114192;28;20413;-72
2021/01/29 14:41:48;;;;;;;29.13;5.97;;;;;;;;;;5116780;28;20024;-72
2021/01/29 14:44:32;;;;;;;31.20;4.90;;;;;;;;;;5117026;28;20011;-72
2021/01/29 14:47:02;;;;;;;30.05;5.93;;;;;;;;;;5116715;28;20018;-72
2021/01/29 14:49:46;;;;;;;31.75;5.53;;;;;;;;;;5115163;28;20086;-72
2021/01/29 14:52:13;;;;;;;30.67;5.85;;;;;;;;;;5112474;28;20028;-72
2021/01/29 14:54:44;;;;;;;23.60;5.90;;;;;;;;;;5116665;28;20058;-72
2021/01/29 14:57:14;;;;;;;24.88;5.20;;;;;;;;;;5116589;28;20032;-72
2021/01/29 14:59:43;;;;;;;34.83;6.70;;;;;;;;;;5116756;28;20015;-72
2021/01/29 15:02:08;;;;;;;26.75;5.45;;;;;;;;;;5118915;27;20058;-72